Time;durP1;ratioP1;P1;durP2;ratioP2;P2;SDS_P1;SDS_P2;PMS_P1;PMS_P2;Temp;Humidity;BMP_temperature;BMP_pressure;BME280_temperature;BME280_humidity;BME280_pressure;Samples;Min_cycle;Max_cycle;Signal;HPM_P1;HPM_P2
2024/01/07 00:01:03;;;;;;;3.00;1.65;;;;;;;;;;10368193;28;20447;-48
2024/01/07 00:06:04;;;;;;;2.40;1.63;;;;;;;;;;10367962;28;20029;-51
2024/01/07 00:11:04;;;;;;;4.57;1.90;;;;;;;;;;10352758;28;20520;-49
2024/01/07 00:16:05;;;;;;;4.05;1.70;;;;;;;;;;10364509;28;20042;-50
2024/01/07 00:21:06;;;;;;;3.65;1.70;;;;;;;;;;10365389;28;20120;-51
2024/01/07 00:26:07;;;;;;;3.08;1.60;;;;;;;;;;10358189;28;20104;-49
2024/01/07 00:31:09;;;;;;;5.22;1.80;;;;;;;;;;10364429;28;20030;-52
2024/01/07 00:36:09;;;;;;;1.75;1.50;;;;;;;;;;10365866;28;20085;-47
2024/01/07 00:41:10;;;;;;;2.97;1.70;;;;;;;;;;10366340;28;20108;-48
2024/01/07 00:46:10;;;;;;;3.30;1.60;;;;;;;;;;10365758;28;20030;-54
2024/01/07 00:51:11;;;;;;;2.47;1.33;;;;;;;;;;10365657;28;20033;-52
2024/01/07 00:56:11;;;;;;;2.03;1.20;;;;;;;;;;10362240;28;20513;-51
2024/01/07 01:01:12;;;;;;;5.50;1.75;;;;;;;;;;10359640;28;20034;-51
2024/01/07 01:06:13;;;;;;;2.03;1.23;;;;;;;;;;10367227;28;20032;-50
2024/01/07 01:11:13;;;;;;;1.42;1.20;;;;;;;;;;10357246;28;20034;-51
2024/01/07 01:16:14;;;;;;;3.28;1.20;;;;;;;;;;10362509;28;20040;-50
2024/01/07 01:21:15;;;;;;;1.33;1.17;;;;;;;;;;10343405;28;20038;-51
2024/01/07 01:26:15;;;;;;;1.77;1.40;;;;;;;;;;10353327;28;20021;-51
2024/01/07 01:31:16;;;;;;;3.05;1.20;;;;;;;;;;10366246;28;20096;-53
2024/01/07 01:36:16;;;;;;;4.53;1.35;;;;;;;;;;10365352;28;20045;-53
2024/01/07 01:41:17;;;;;;;1.33;1.23;;;;;;;;;;10365375;28;20029;-52
2024/01/07 01:46:18;;;;;;;1.45;1.30;;;;;;;;;;10365995;28;20503;-52
2024/01/07 01:51:19;;;;;;;5.75;1.55;;;;;;;;;;10353192;28;20030;-52
2024/01/07 01:56:20;;;;;;;2.83;1.25;;;;;;;;;;10363945;28;20029;-52
2024/01/07 02:01:23;;;;;;;1.25;1.20;;;;;;;;;;10365731;28;20033;-53
2024/01/07 02:06:24;;;;;;;2.47;1.20;;;;;;;;;;10365106;28;20026;-51
2024/01/07 02:11:25;;;;;;;1.95;1.33;;;;;;;;;;10364579;28;20037;-52
2024/01/07 02:16:25;;;;;;;1.55;1.45;;;;;;;;;;10365832;28;20037;-52
2024/01/07 02:21:26;;;;;;;1.90;1.30;;;;;;;;;;10363412;28;20328;-50
2024/01/07 02:26:26;;;;;;;2.58;1.20;;;;;;;;;;10363478;28;20038;-49
2024/01/07 02:31:27;;;;;;;3.33;1.40;;;;;;;;;;10364610;28;20046;-52
2024/01/07 02:36:27;;;;;;;1.30;1.20;;;;;;;;;;10364679;28;20433;-51
2024/01/07 02:41:28;;;;;;;2.78;2.10;;;;;;;;;;10364466;28;20121;-50
2024/01/07 02:46:29;;;;;;;1.60;1.30;;;;;;;;;;10364091;28;20025;-51
2024/01/07 02:51:30;;;;;;;1.00;1.00;;;;;;;;;;10370747;28;20060;-52
2024/01/07 02:56:30;;;;;;;3.08;1.50;;;;;;;;;;10371452;28;20034;-52
2024/01/07 03:01:31;;;;;;;1.40;1.20;;;;;;;;;;10371735;28;20026;-53
2024/01/07 03:06:32;;;;;;;1.10;1.10;;;;;;;;;;10363144;28;20038;-53
2024/01/07 03:11:32;;;;;;;1.60;1.20;;;;;;;;;;10371517;28;20033;-52
2024/01/07 03:16:33;;;;;;;1.33;1.23;;;;;;;;;;10371008;28;20057;-48
2024/01/07 03:21:33;;;;;;;1.50;1.30;;;;;;;;;;10359670;28;20029;-52
2024/01/07 03:26:34;;;;;;;1.05;1.05;;;;;;;;;;10367405;28;20033;-51
2024/01/07 03:31:35;;;;;;;2.80;1.10;;;;;;;;;;10370795;28;20116;-55
2024/01/07 03:36:35;;;;;;;4.22;1.10;;;;;;;;;;10357500;28;20397;-51
2024/01/07 03:41:36;;;;;;;1.30;1.20;;;;;;;;;;10362880;28;20576;-53
2024/01/07 03:46:36;;;;;;;1.40;1.30;;;;;;;;;;10364511;28;20389;-53
2024/01/07 03:51:37;;;;;;;1.10;1.00;;;;;;;;;;10368057;28;20030;-51
2024/01/07 03:56:38;;;;;;;1.27;1.17;;;;;;;;;;10369656;28;20045;-52
2024/01/07 04:01:38;;;;;;;1.38;1.25;;;;;;;;;;10356739;28;20044;-58
2024/01/07 04:06:39;;;;;;;1.40;1.13;;;;;;;;;;10368993;28;20037;-52
2024/01/07 04:11:41;;;;;;;1.95;1.10;;;;;;;;;;10369278;28;20026;-52
2024/01/07 04:16:42;;;;;;;1.80;1.27;;;;;;;;;;10356664;28;20041;-51
2024/01/07 04:21:46;;;;;;;3.45;1.00;;;;;;;;;;10369703;28;20033;-55
2024/01/07 04:26:46;;;;;;;1.63;1.00;;;;;;;;;;10369516;28;20382;-48
2024/01/07 04:31:47;;;;;;;1.10;1.00;;;;;;;;;;10355453;28;20033;-54
2024/01/07 04:36:48;;;;;;;0.90;0.90;;;;;;;;;;10368492;28;20046;-51
2024/01/07 04:41:48;;;;;;;1.13;1.10;;;;;;;;;;10355865;28;20033;-48
2024/01/07 04:46:49;;;;;;;1.23;1.13;;;;;;;;;;10355424;28;20037;-48
2024/01/07 04:51:50;;;;;;;1.20;1.10;;;;;;;;;;10355076;28;20034;-50
2024/01/07 04:56:50;;;;;;;1.10;1.00;;;;;;;;;;10367680;28;20111;-46
2024/01/07 05:01:51;;;;;;;1.35;1.10;;;;;;;;;;10366947;28;20034;-52
2024/01/07 05:06:51;;;;;;;1.23;1.10;;;;;;;;;;10366990;28;20203;-52
2024/01/07 05:11:52;;;;;;;4.93;1.30;;;;;;;;;;10350981;28;20022;-51
2024/01/07 05:16:56;;;;;;;1.00;0.90;;;;;;;;;;10356769;28;20022;-49
2024/01/07 05:21:56;;;;;;;1.20;1.10;;;;;;;;;;10354332;28;20497;-48
2024/01/07 05:26:57;;;;;;;2.47;1.13;;;;;;;;;;10366934;28;20022;-51
2024/01/07 05:32:00;;;;;;;1.13;0.98;;;;;;;;;;10366109;28;20022;-50
2024/01/07 05:37:00;;;;;;;0.90;0.90;;;;;;;;;;10365789;28;20045;-54
2024/01/07 05:42:01;;;;;;;1.00;1.00;;;;;;;;;;10366209;28;20029;-52
2024/01/07 05:47:01;;;;;;;1.42;1.30;;;;;;;;;;10353102;28;20026;-51
2024/01/07 05:52:02;;;;;;;0.82;0.82;;;;;;;;;;10365387;28;20470;-52
2024/01/07 05:57:03;;;;;;;1.25;1.10;;;;;;;;;;10365693;28;20117;-50
2024/01/07 06:02:04;;;;;;;1.20;1.10;;;;;;;;;;10364562;28;20477;-53
2024/01/07 06:07:04;;;;;;;1.10;1.10;;;;;;;;;;10364902;28;20026;-53
2024/01/07 06:12:05;;;;;;;0.90;0.90;;;;;;;;;;10365064;28;20121;-52
2024/01/07 06:17:05;;;;;;;1.23;1.13;;;;;;;;;;10352514;28;20264;-52
2024/01/07 06:22:06;;;;;;;1.15;1.13;;;;;;;;;;10352062;28;20030;-55
2024/01/07 06:27:07;;;;;;;1.27;1.00;;;;;;;;;;10363969;28;20038;-52
2024/01/07 06:32:09;;;;;;;1.20;1.10;;;;;;;;;;10339829;28;20050;-52
2024/01/07 06:37:10;;;;;;;2.63;1.00;;;;;;;;;;10364454;28;20042;-54
2024/01/07 06:42:10;;;;;;;1.58;1.10;;;;;;;;;;10363684;28;20453;-52
2024/01/07 06:47:11;;;;;;;1.13;1.00;;;;;;;;;;10362930;28;20026;-52
2024/01/07 06:52:12;;;;;;;1.20;1.10;;;;;;;;;;10364432;28;20045;-50
2024/01/07 06:57:13;;;;;;;0.93;0.93;;;;;;;;;;10364148;28;20492;-48
2024/01/07 07:02:13;;;;;;;1.20;0.90;;;;;;;;;;10350838;28;20037;-52
2024/01/07 07:07:14;;;;;;;0.90;0.90;;;;;;;;;;10351859;28;20061;-50
2024/01/07 07:12:14;;;;;;;0.80;0.80;;;;;;;;;;10363755;28;20037;-51
2024/01/07 07:17:15;;;;;;;0.90;0.90;;;;;;;;;;10363133;28;20473;-51
2024/01/07 07:22:16;;;;;;;1.00;0.90;;;;;;;;;;10361193;28;20029;-52
2024/01/07 07:27:16;;;;;;;1.00;1.00;;;;;;;;;;10362483;28;20041;-51
2024/01/07 07:32:17;;;;;;;1.00;1.00;;;;;;;;;;10346639;28;20038;-52
2024/01/07 07:37:18;;;;;;;0.93;0.93;;;;;;;;;;10367096;28;20052;-55
2024/01/07 07:42:19;;;;;;;1.20;0.98;;;;;;;;;;10359069;28;20089;-53
2024/01/07 07:47:20;;;;;;;2.17;0.98;;;;;;;;;;10370269;28;20041;-54
2024/01/07 07:52:25;;;;;;;1.13;0.93;;;;;;;;;;10356342;28;20481;-55
2024/01/07 07:57:25;;;;;;;1.08;1.02;;;;;;;;;;10369842;28;20415;-59
2024/01/07 08:02:26;;;;;;;1.15;0.98;;;;;;;;;;10368813;28;20084;-56
2024/01/07 08:07:27;;;;;;;1.05;0.95;;;;;;;;;;10368641;28;20073;-53
2024/01/07 08:12:27;;;;;;;0.77;0.77;;;;;;;;;;10360253;28;20034;-52
2024/01/07 08:17:28;;;;;;;0.93;0.90;;;;;;;;;;10365220;28;20036;-52
2024/01/07 08:22:29;;;;;;;0.82;0.82;;;;;;;;;;10370067;28;20018;-53
2024/01/07 08:27:32;;;;;;;0.90;0.90;;;;;;;;;;10368094;28;20045;-51
2024/01/07 08:32:32;;;;;;;1.45;0.93;;;;;;;;;;10355698;28;20154;-52
2024/01/07 08:37:33;;;;;;;1.25;0.80;;;;;;;;;;10367539;28;20793;-52
2024/01/07 08:42:34;;;;;;;0.90;0.90;;;;;;;;;;10367992;28;20462;-52
2024/01/07 08:47:35;;;;;;;4.50;1.23;;;;;;;;;;10364084;28;20037;-53
2024/01/07 08:52:36;;;;;;;1.13;0.98;;;;;;;;;;10364491;28;20042;-53
2024/01/07 08:57:38;;;;;;;0.80;0.80;;;;;;;;;;10365546;28;20615;-52
2024/01/07 09:02:40;;;;;;;0.80;0.80;;;;;;;;;;10365193;28;20265;-55
2024/01/07 09:07:41;;;;;;;0.75;0.75;;;;;;;;;;10367008;28;20088;-54
2024/01/07 09:12:41;;;;;;;0.90;0.90;;;;;;;;;;10366279;28;20045;-53
2024/01/07 09:17:42;;;;;;;0.75;0.75;;;;;;;;;;10363116;28;20061;-53
2024/01/07 09:22:43;;;;;;;0.80;0.80;;;;;;;;;;10365313;28;20045;-52
2024/01/07 09:27:44;;;;;;;1.08;0.98;;;;;;;;;;10363247;28;20401;-52
2024/01/07 09:32:44;;;;;;;0.80;0.80;;;;;;;;;;10361897;28;20037;-54
2024/01/07 09:37:45;;;;;;;1.13;0.93;;;;;;;;;;10371627;28;20290;-52
2024/01/07 09:42:46;;;;;;;0.93;0.90;;;;;;;;;;10365395;28;20045;-52
2024/01/07 09:47:47;;;;;;;0.90;0.90;;;;;;;;;;10364922;28;20038;-52
2024/01/07 09:52:50;;;;;;;1.02;0.80;;;;;;;;;;10354683;28;20465;-52
2024/01/07 09:57:51;;;;;;;0.80;0.80;;;;;;;;;;10365408;28;20368;-52
2024/01/07 10:02:51;;;;;;;0.90;0.90;;;;;;;;;;10355824;28;20030;-52
2024/01/07 10:07:55;;;;;;;1.02;0.93;;;;;;;;;;10351803;28;20026;-51
2024/01/07 10:12:56;;;;;;;0.73;0.73;;;;;;;;;;10357907;28;20100;-54
2024/01/07 10:18:05;;;;;;;0.80;0.80;;;;;;;;;;10359122;28;20481;-52
2024/01/07 10:23:07;;;;;;;0.80;0.80;;;;;;;;;;10357016;28;20057;-52
2024/01/07 10:28:08;;;;;;;2.60;0.90;;;;;;;;;;10358553;28;20380;-52
2024/01/07 10:33:09;;;;;;;1.25;1.10;;;;;;;;;;10364597;28;20034;-53
2024/01/07 10:38:09;;;;;;;1.17;1.00;;;;;;;;;;10364912;28;20042;-51
2024/01/07 10:43:10;;;;;;;0.88;0.85;;;;;;;;;;10362786;28;20030;-52
2024/01/07 10:48:11;;;;;;;2.38;0.93;;;;;;;;;;10365619;28;20050;-52
2024/01/07 10:53:20;;;;;;;0.80;0.80;;;;;;;;;;10356170;28;20026;-53
2024/01/07 10:58:21;;;;;;;0.77;0.77;;;;;;;;;;10356753;28;20431;-54
2024/01/07 11:04:05;;;;;;;0.80;0.80;;;;;;;;;;10366011;28;20073;-54
2024/01/07 11:09:37;;;;;;;1.05;1.05;;;;;;;;;;10365697;28;20169;-53
2024/01/07 11:14:39;;;;;;;1.75;1.27;;;;;;;;;;10357400;28;20584;-52
2024/01/07 11:19:53;;;;;;;1.20;1.10;;;;;;;;;;10371749;28;20042;-52
2024/01/07 11:24:59;;;;;;;2.42;1.25;;;;;;;;;;10364360;28;20041;-52
2024/01/07 11:30:19;;;;;;;2.33;1.17;;;;;;;;;;10368823;28;20045;-52
2024/01/07 11:36:01;;;;;;;7.97;1.40;;;;;;;;;;10380833;22;20052;-65
2024/01/07 11:41:05;;;;;;;5.65;1.52;;;;;;;;;;10360262;28;20026;-64
2024/01/07 11:46:06;;;;;;;5.65;1.23;;;;;;;;;;10376575;28;20489;-65
2024/01/07 11:51:06;;;;;;;1.80;1.40;;;;;;;;;;10378622;28;20026;-64
2024/01/07 11:56:09;;;;;;;1.98;1.38;;;;;;;;;;10357501;28;20482;-65
2024/01/07 12:01:09;;;;;;;3.22;1.50;;;;;;;;;;10368583;28;20119;-65
2024/01/07 12:06:13;;;;;;;4.65;1.60;;;;;;;;;;10356375;28;20042;-66
2024/01/07 12:11:15;;;;;;;3.90;1.70;;;;;;;;;;10343660;28;20038;-65
2024/01/07 12:16:16;;;;;;;3.05;1.60;;;;;;;;;;10350266;28;20062;-65
2024/01/07 12:21:21;;;;;;;5.50;1.85;;;;;;;;;;10352845;28;20104;-66
2024/01/07 12:26:28;;;;;;;1.90;1.40;;;;;;;;;;10378542;28;20521;-65
2024/01/07 12:31:31;;;;;;;2.75;1.60;;;;;;;;;;10354261;28;20073;-66
2024/01/07 12:36:32;;;;;;;1.73;1.55;;;;;;;;;;10357138;28;20603;-65
2024/01/07 12:41:33;;;;;;;1.50;1.40;;;;;;;;;;10353459;28;20532;-66
2024/01/07 12:46:34;;;;;;;3.78;1.52;;;;;;;;;;10363174;28;20030;-66
2024/01/07 12:51:35;;;;;;;3.10;1.60;;;;;;;;;;10363331;28;20146;-66
2024/01/07 12:56:36;;;;;;;1.33;1.23;;;;;;;;;;10358376;28;20489;-66
2024/01/07 13:01:36;;;;;;;3.75;1.80;;;;;;;;;;10358651;28;20523;-65
2024/01/07 13:06:37;;;;;;;2.30;1.45;;;;;;;;;;10360604;28;20038;-65
2024/01/07 13:11:38;;;;;;;1.80;1.55;;;;;;;;;;10354608;28;20050;-66
2024/01/07 13:16:38;;;;;;;2.40;1.58;;;;;;;;;;10363654;28;20037;-66
2024/01/07 13:21:39;;;;;;;4.60;1.75;;;;;;;;;;10364406;28;20044;-66
2024/01/07 13:26:41;;;;;;;2.55;1.73;;;;;;;;;;10360607;28;20036;-66
2024/01/07 13:31:42;;;;;;;2.80;1.90;;;;;;;;;;10363672;28;20064;-71
2024/01/07 13:36:46;;;;;;;4.63;1.58;;;;;;;;;;10335325;28;20046;-68
2024/01/07 13:41:47;;;;;;;5.82;2.10;;;;;;;;;;10357365;28;20084;-69
2024/01/07 13:46:47;;;;;;;2.90;1.60;;;;;;;;;;10365204;28;20443;-69
2024/01/07 13:51:48;;;;;;;1.52;1.38;;;;;;;;;;10361009;28;20227;-68
2024/01/07 13:56:50;;;;;;;2.63;1.63;;;;;;;;;;10358777;28;20383;-69
2024/01/07 14:01:51;;;;;;;4.30;2.65;;;;;;;;;;10362966;28;20046;-69
2024/01/07 14:06:56;;;;;;;2.13;1.70;;;;;;;;;;10368587;28;20425;-68
2024/01/07 14:11:57;;;;;;;2.15;1.52;;;;;;;;;;10350396;28;20070;-68
2024/01/07 14:16:58;;;;;;;8.95;1.65;;;;;;;;;;10354249;28;20030;-69
2024/01/07 14:22:00;;;;;;;2.55;1.83;;;;;;;;;;10353169;28;20076;-68
2024/01/07 14:27:01;;;;;;;4.40;1.67;;;;;;;;;;10355915;28;20265;-68
2024/01/07 14:32:02;;;;;;;3.92;1.70;;;;;;;;;;10355767;28;20034;-68
2024/01/07 14:37:03;;;;;;;4.07;1.70;;;;;;;;;;10348271;28;20042;-73
2024/01/07 14:42:04;;;;;;;2.45;1.88;;;;;;;;;;10359386;28;20033;-72
2024/01/07 14:47:04;;;;;;;2.03;1.80;;;;;;;;;;10360225;28;20030;-71
2024/01/07 14:52:05;;;;;;;9.98;1.65;;;;;;;;;;10369223;28;20069;-72
2024/01/07 14:57:08;;;;;;;1.50;1.40;;;;;;;;;;10372837;28;20030;-71
2024/01/07 15:02:08;;;;;;;2.92;1.80;;;;;;;;;;10366867;28;20038;-72
2024/01/07 15:07:09;;;;;;;2.17;1.73;;;;;;;;;;10361461;28;20030;-67
2024/01/07 15:12:10;;;;;;;1.60;1.50;;;;;;;;;;10361109;28;20088;-66
2024/01/07 15:17:11;;;;;;;2.65;1.90;;;;;;;;;;10366019;28;20022;-66
2024/01/07 15:22:12;;;;;;;3.10;2.20;;;;;;;;;;10360856;28;20044;-66
2024/01/07 15:27:13;;;;;;;2.67;2.08;;;;;;;;;;10356060;28;20034;-66
2024/01/07 15:32:13;;;;;;;2.35;1.60;;;;;;;;;;10361756;28;20117;-66
2024/01/07 15:37:14;;;;;;;2.10;1.90;;;;;;;;;;10362698;28;20100;-66
2024/01/07 15:42:14;;;;;;;4.93;2.17;;;;;;;;;;10361283;28;20061;-66
2024/01/07 15:47:15;;;;;;;3.40;1.95;;;;;;;;;;10343307;28;20037;-66
2024/01/07 15:52:16;;;;;;;2.15;1.95;;;;;;;;;;10367661;28;20030;-67
2024/01/07 15:57:16;;;;;;;3.88;1.80;;;;;;;;;;10362911;28;20072;-67
2024/01/07 16:02:17;;;;;;;3.38;2.28;;;;;;;;;;10368943;28;20042;-67
2024/01/07 16:07:18;;;;;;;3.58;1.90;;;;;;;;;;10367774;28;20045;-67
2024/01/07 16:12:18;;;;;;;4.80;2.28;;;;;;;;;;10368203;28;20038;-67
2024/01/07 16:17:19;;;;;;;2.05;1.85;;;;;;;;;;10365364;28;20543;-67
2024/01/07 16:22:20;;;;;;;3.88;1.90;;;;;;;;;;10346055;28;20057;-67
2024/01/07 16:27:21;;;;;;;4.47;2.20;;;;;;;;;;10350380;28;20432;-67
2024/01/07 16:32:21;;;;;;;2.03;1.83;;;;;;;;;;10364669;28;20049;-67
2024/01/07 16:37:22;;;;;;;2.40;2.00;;;;;;;;;;10363326;28;20053;-67
2024/01/07 16:42:23;;;;;;;3.05;1.85;;;;;;;;;;10363331;28;20165;-67
2024/01/07 16:47:23;;;;;;;2.35;1.92;;;;;;;;;;10366638;28;20049;-67
2024/01/07 16:52:24;;;;;;;3.67;1.90;;;;;;;;;;10364664;28;20096;-67
2024/01/07 16:57:25;;;;;;;2.70;2.08;;;;;;;;;;10352930;28;20026;-65
2024/01/07 17:02:25;;;;;;;2.03;1.60;;;;;;;;;;10363901;28;20030;-68
2024/01/07 17:07:28;;;;;;;3.05;1.85;;;;;;;;;;10368072;28;20374;-70
2024/01/07 17:12:29;;;;;;;2.25;1.90;;;;;;;;;;10357861;28;20091;-69
2024/01/07 17:17:30;;;;;;;4.28;1.67;;;;;;;;;;10349756;28;20452;-68
2024/01/07 17:22:30;;;;;;;2.55;1.75;;;;;;;;;;10352532;28;20046;-69
2024/01/07 17:27:31;;;;;;;2.33;1.70;;;;;;;;;;10352031;28;20048;-67
2024/01/07 17:32:31;;;;;;;5.30;2.10;;;;;;;;;;10367684;28;20087;-68
2024/01/07 17:37:34;;;;;;;2.65;1.90;;;;;;;;;;10362469;28;20478;-67
2024/01/07 17:42:34;;;;;;;1.45;1.35;;;;;;;;;;10359945;28;20026;-67
2024/01/07 17:47:35;;;;;;;2.00;1.85;;;;;;;;;;10362740;28;20039;-67
2024/01/07 17:52:35;;;;;;;4.10;1.85;;;;;;;;;;10360732;28;20041;-68
2024/01/07 17:57:36;;;;;;;1.83;1.70;;;;;;;;;;10363717;28;20508;-68
2024/01/07 18:02:38;;;;;;;1.88;1.65;;;;;;;;;;10363442;28;20025;-67
2024/01/07 18:07:39;;;;;;;2.65;1.80;;;;;;;;;;10367149;28;20033;-68
2024/01/07 18:12:40;;;;;;;2.28;1.73;;;;;;;;;;10369339;28;20041;-68
2024/01/07 18:17:42;;;;;;;2.13;1.70;;;;;;;;;;10361685;28;20532;-69
2024/01/07 18:22:43;;;;;;;1.77;1.63;;;;;;;;;;10364303;28;20079;-69
2024/01/07 18:27:44;;;;;;;2.95;1.67;;;;;;;;;;10360893;28;20080;-68
2024/01/07 18:32:45;;;;;;;8.05;2.65;;;;;;;;;;10365003;28;20200;-65
2024/01/07 18:37:49;;;;;;;9.30;2.78;;;;;;;;;;10360858;28;20179;-69
2024/01/07 18:42:50;;;;;;;6.60;2.20;;;;;;;;;;10360266;28;20034;-70
2024/01/07 18:47:51;;;;;;;11.23;3.25;;;;;;;;;;10372227;28;20591;-70
2024/01/07 18:52:52;;;;;;;4.72;2.38;;;;;;;;;;10337604;28;20096;-70
2024/01/07 18:57:53;;;;;;;5.80;2.47;;;;;;;;;;10353496;28;20060;-72
2024/01/07 19:02:53;;;;;;;5.18;2.45;;;;;;;;;;10364178;28;20057;-71
2024/01/07 19:07:54;;;;;;;4.22;2.50;;;;;;;;;;10363265;28;20040;-71
2024/01/07 19:12:55;;;;;;;8.13;2.63;;;;;;;;;;10364817;28;20061;-72
2024/01/07 19:17:57;;;;;;;4.40;2.30;;;;;;;;;;10363922;28;20033;-71
2024/01/07 19:22:58;;;;;;;3.60;2.25;;;;;;;;;;10364783;28;20485;-71
2024/01/07 19:27:59;;;;;;;9.55;2.80;;;;;;;;;;10367203;28;20034;-71
2024/01/07 19:33:00;;;;;;;3.80;2.78;;;;;;;;;;10376769;28;20038;-72
2024/01/07 19:38:00;;;;;;;4.45;2.70;;;;;;;;;;10370640;28;20548;-71
2024/01/07 19:43:01;;;;;;;2.65;2.00;;;;;;;;;;10350104;28;20017;-71
2024/01/07 19:48:04;;;;;;;4.43;2.47;;;;;;;;;;10372880;28;20036;-71
2024/01/07 19:53:04;;;;;;;10.00;2.70;;;;;;;;;;10369779;28;20038;-71
2024/01/07 19:58:05;;;;;;;7.38;2.70;;;;;;;;;;10369309;28;20029;-65
2024/01/07 20:03:05;;;;;;;4.18;2.72;;;;;;;;;;10362365;28;20026;-68
2024/01/07 20:08:07;;;;;;;7.32;2.38;;;;;;;;;;10352934;28;20030;-71
2024/01/07 20:13:08;;;;;;;6.60;3.03;;;;;;;;;;10345048;28;20290;-71
2024/01/07 20:18:09;;;;;;;6.00;2.35;;;;;;;;;;10356532;28;20266;-72
2024/01/07 20:23:09;;;;;;;5.80;2.53;;;;;;;;;;10352542;28;20052;-72
2024/01/07 20:28:10;;;;;;;5.05;2.20;;;;;;;;;;10351447;28;20052;-72
2024/01/07 20:33:14;;;;;;;6.82;2.70;;;;;;;;;;10353265;28;20038;-72
2024/01/07 20:38:15;;;;;;;4.00;2.47;;;;;;;;;;10358185;28;20409;-72
2024/01/07 20:43:15;;;;;;;5.75;2.42;;;;;;;;;;10368349;28;20034;-72
2024/01/07 20:48:16;;;;;;;5.60;2.60;;;;;;;;;;10383554;28;20029;-67
2024/01/07 20:53:19;;;;;;;3.97;2.53;;;;;;;;;;10367611;28;20500;-71
2024/01/07 20:58:20;;;;;;;5.72;2.40;;;;;;;;;;10367652;28;20381;-67
2024/01/07 21:03:21;;;;;;;5.07;2.95;;;;;;;;;;10367643;28;20029;-72
2024/01/07 21:08:21;;;;;;;4.47;2.47;;;;;;;;;;10367205;28;20030;-72
2024/01/07 21:13:22;;;;;;;3.42;2.13;;;;;;;;;;10367051;28;20038;-72
2024/01/07 21:18:22;;;;;;;4.18;2.30;;;;;;;;;;10365809;28;20029;-72
2024/01/07 21:23:23;;;;;;;2.75;2.22;;;;;;;;;;10345089;28;20031;-71
2024/01/07 21:28:23;;;;;;;4.03;2.20;;;;;;;;;;10338009;28;20038;-72
2024/01/07 21:33:26;;;;;;;7.68;2.75;;;;;;;;;;10344615;28;20041;-72
2024/01/07 21:38:27;;;;;;;3.83;2.30;;;;;;;;;;10348627;28;20030;-70
2024/01/07 21:43:27;;;;;;;5.57;2.22;;;;;;;;;;10347545;28;20034;-72
2024/01/07 21:48:33;;;;;;;7.10;2.28;;;;;;;;;;10350049;28;20026;-72
2024/01/07 21:53:34;;;;;;;3.05;2.40;;;;;;;;;;10353580;28;20030;-72
2024/01/07 21:58:34;;;;;;;3.97;2.25;;;;;;;;;;10349100;28;20458;-72
2024/01/07 22:03:35;;;;;;;5.15;2.63;;;;;;;;;;10352072;28;20318;-72
2024/01/07 22:08:36;;;;;;;2.55;2.33;;;;;;;;;;10337269;28;20041;-72
2024/01/07 22:13:36;;;;;;;3.95;2.20;;;;;;;;;;10339442;28;20033;-72
2024/01/07 22:18:39;;;;;;;4.90;2.75;;;;;;;;;;10346999;28;20094;-66
2024/01/07 22:23:40;;;;;;;2.88;2.30;;;;;;;;;;10364846;28;20084;-72
2024/01/07 22:28:44;;;;;;;3.67;2.55;;;;;;;;;;10338463;28;20030;-72
2024/01/07 22:33:47;;;;;;;3.35;2.72;;;;;;;;;;10360017;28;20481;-66
2024/01/07 22:38:48;;;;;;;5.38;2.95;;;;;;;;;;10360255;28;20057;-65
2024/01/07 22:43:49;;;;;;;4.63;3.40;;;;;;;;;;10364849;28;20053;-67
2024/01/07 22:48:49;;;;;;;5.30;3.15;;;;;;;;;;10361283;28;20033;-67
2024/01/07 22:53:50;;;;;;;4.18;3.28;;;;;;;;;;10341364;28;20273;-63
2024/01/07 22:58:51;;;;;;;5.68;3.33;;;;;;;;;;10360682;28;20033;-61
2024/01/07 23:03:54;;;;;;;16.27;3.25;;;;;;;;;;10364646;28;20080;-61
2024/01/07 23:08:54;;;;;;;5.25;2.90;;;;;;;;;;10370791;28;20109;-61
2024/01/07 23:13:57;;;;;;;4.57;3.28;;;;;;;;;;10371384;28;20433;-62
2024/01/07 23:18:58;;;;;;;4.40;3.25;;;;;;;;;;10365617;28;20026;-62
2024/01/07 23:23:58;;;;;;;3.83;3.40;;;;;;;;;;10374633;28;20038;-63
2024/01/07 23:28:59;;;;;;;6.28;3.17;;;;;;;;;;10370239;28;20037;-63
2024/01/07 23:33:59;;;;;;;4.30;2.80;;;;;;;;;;10370856;28;20141;-65
2024/01/07 23:39:00;;;;;;;4.13;3.00;;;;;;;;;;10368622;28;20046;-65
2024/01/07 23:44:01;;;;;;;6.75;3.00;;;;;;;;;;10369241;28;20080;-63
2024/01/07 23:49:02;;;;;;;4.63;3.10;;;;;;;;;;10360082;28;20080;-62
2024/01/07 23:54:02;;;;;;;5.30;2.85;;;;;;;;;;10363835;28;20088;-62
2024/01/07 23:59:03;;;;;;;9.02;2.92;;;;;;;;;;10370474;28;20045;-62
